【飛行機パイロット】飛行機・パイロットに関する知識を公開中!

【学科試験】自家用操縦士(飛):2019年7月航空気象

【学科試験】自家用操縦士(飛):2019年7月航空気象

1. 国際標準大気における平均海面上10,000ftの気温で正しいものはどれか。

Correct! Wrong!

2.航空機に装備された気圧高度計について正しいものはどれか。

Correct! Wrong!

3.大気が上昇して飽和に達する直前までの気温減率である乾燥断熱減率で正しいものはどれか。

Correct! Wrong!

4.霧についての説明で誤りはどれか。

Correct! Wrong!

5.地上天気図で等圧線の間隔が狭いときに予想される気象現象で正しいものはどれか。

Correct! Wrong!

6.海陸風の説明について誤りはどれか。

Correct! Wrong!

7.日本列島に影響をおよぼす気団について正しいものはどれか。

Correct! Wrong!

8.前線のもつ一般的性質について誤りはどれか。

Correct! Wrong!

9.寒冷前線について誤りはどれか。

Correct! Wrong!

10.高気圧について正しいものはどれか。

Correct! Wrong!

11.日本列島に影響する二つ玉低気圧の特徴で誤りはどれか。

Correct! Wrong!

12.山岳波によってできる雲で誤りはどれか。

Correct! Wrong!

13.低高度ウインドシアーの恐れがある状況で誤りはどれか。

Correct! Wrong!

14.雷雲に伴う気象現象について誤りはどれか。

Correct! Wrong!

15.着氷についての記述で誤りはどれか。

Correct! Wrong!

16.霧 (fog) について正しいものはどれか。

Correct! Wrong!

17.下記の定時飛行場実況気象通報式 (METAR) の解読で誤りはどれか。RJFT 200100Z 260010KT 5000 BR FEW008 SCT015 OVC020 21/19 Q1016 RMK2CU008 4CU0158SC020 A3001

Correct! Wrong!

18.運航用飛行場予報気象通報式 (TAF)で使用される変化指示符BECMGの説明で正しいものはどれか。

Correct! Wrong!

19.850hPa天気図の説明で誤りはどれか。

Correct! Wrong!

20.地上天気図に表される下図の前線の記号で正しいものはどれか。

Correct! Wrong!

【学科試験】自家用操縦士(飛):2019年7月航空気象
残念

諦めずにもう一度挑戦してみましょう!
合格!

おめでとうございます!
>飛行機パイロットTV

飛行機パイロットTV

1週間に1本以上動画配信中です。あなたの登録が励みになります!

CTR IMG